createdAt,value
2018-04-12T00:00:43.086Z,76.17
2018-04-12T00:03:10.638Z,76.91
2018-04-12T00:05:38.111Z,76.31
2018-04-12T00:08:05.591Z,75.92
2018-04-12T00:10:33.052Z,75.98
2018-04-12T00:13:00.801Z,75.74
2018-04-12T00:15:28.247Z,75.79
2018-04-12T00:17:55.740Z,76.00
2018-04-12T00:20:23.233Z,76.09
2018-04-12T00:22:50.730Z,76.12
2018-04-12T00:25:18.175Z,76.46
2018-04-12T00:27:45.643Z,76.19
2018-04-12T00:30:14.127Z,76.81
2018-04-12T00:32:41.577Z,76.49
2018-04-12T00:35:09.051Z,76.51
2018-04-12T00:37:36.525Z,76.44
2018-04-12T00:40:04.969Z,76.53
2018-04-12T00:42:32.418Z,76.72
2018-04-12T00:44:59.890Z,77.07
2018-04-12T00:47:27.330Z,77.12
2018-04-12T00:49:54.799Z,76.85
2018-04-12T00:52:22.247Z,76.73
2018-04-12T00:54:49.715Z,77.21
2018-04-12T00:57:17.634Z,77.22
2018-04-12T00:59:45.137Z,77.36
2018-04-12T01:02:12.697Z,76.71
2018-04-12T01:04:40.199Z,76.91
2018-04-12T01:07:07.633Z,77.21
2018-04-12T01:09:35.174Z,77.30
2018-04-12T01:12:03.547Z,76.67
2018-04-12T01:14:32.007Z,76.73
2018-04-12T01:16:59.478Z,76.57
2018-04-12T01:19:26.919Z,76.03
2018-04-12T01:21:54.386Z,75.86
2018-04-12T01:24:21.821Z,75.56
2018-04-12T01:26:49.288Z,76.22
2018-04-12T01:29:16.731Z,75.83
2018-04-12T01:31:44.212Z,75.33
2018-04-12T01:34:11.664Z,75.12
2018-04-12T01:36:40.063Z,75.44
2018-04-12T01:39:07.589Z,75.60
2018-04-12T01:41:35.075Z,75.81
2018-04-12T01:44:03.530Z,76.09
2018-04-12T01:46:30.983Z,76.45
2018-04-12T01:48:58.454Z,76.63
2018-04-12T01:51:25.898Z,76.43
2018-04-12T01:53:53.380Z,76.84
2018-04-12T01:56:20.814Z,77.22
2018-04-12T01:58:48.294Z,77.03
2018-04-12T02:01:15.731Z,76.93
2018-04-12T02:03:43.218Z,76.96
2018-04-12T02:06:10.663Z,77.56
2018-04-12T02:08:38.147Z,77.50
2018-04-12T02:11:05.599Z,77.42
2018-04-12T02:13:33.066Z,77.70
2018-04-12T02:16:00.507Z,77.50
2018-04-12T02:18:27.980Z,77.58
2018-04-12T02:20:55.432Z,77.44
2018-04-12T02:23:22.908Z,77.95
2018-04-12T02:25:50.427Z,77.87
2018-04-12T02:28:17.903Z,77.92
2018-04-12T02:30:45.343Z,78.24
2018-04-12T02:33:12.819Z,77.69
2018-04-12T02:35:40.263Z,77.99
2018-04-12T02:38:07.718Z,77.81
2018-04-12T02:40:35.186Z,77.60
2018-04-12T02:43:02.622Z,77.59
2018-04-12T02:45:30.102Z,77.68
2018-04-12T02:47:57.551Z,77.80
2018-04-12T02:50:25.026Z,77.31
2018-04-12T02:52:52.535Z,77.14
2018-04-12T02:55:20.011Z,77.32
2018-04-12T02:57:47.458Z,77.33
2018-04-12T03:00:14.932Z,77.39
2018-04-12T03:02:42.376Z,77.32
2018-04-12T03:05:09.849Z,77.03
2018-04-12T03:07:37.287Z,76.71
2018-04-12T03:10:04.818Z,76.99
2018-04-12T03:12:32.238Z,77.41
2018-04-12T03:14:59.710Z,77.61
2018-04-12T03:17:27.196Z,77.64
2018-04-12T03:19:55.590Z,77.76
2018-04-12T03:22:23.051Z,78.16
2018-04-12T03:24:50.503Z,78.17
2018-04-12T03:27:18.047Z,78.24
2018-04-12T03:29:45.509Z,78.42
2018-04-12T03:32:13.059Z,78.14
2018-04-12T03:34:40.510Z,78.78
2018-04-12T03:37:07.995Z,79.18
2018-04-12T03:39:36.415Z,78.89
2018-04-12T03:42:03.910Z,79.09
2018-04-12T03:44:31.360Z,78.76
2018-04-12T03:46:58.924Z,78.52
2018-04-12T03:49:26.428Z,78.47
2018-04-12T03:51:53.938Z,79.28
2018-04-12T03:54:21.374Z,78.84
2018-04-12T03:56:48.956Z,78.77
2018-04-12T03:59:16.406Z,78.67
2018-04-12T04:01:44.195Z,78.59
2018-04-12T04:04:12.546Z,78.88
2018-04-12T04:06:39.998Z,79.15
2018-04-12T04:09:07.488Z,78.85
2018-04-12T04:11:34.930Z,79.19
2018-04-12T04:14:02.487Z,79.32
2018-04-12T04:16:41.795Z,79.26
2018-04-12T04:19:21.150Z,79.32
2018-04-12T04:21:48.603Z,79.04
2018-04-12T04:24:16.090Z,79.34
2018-04-12T04:26:43.538Z,79.72
2018-04-12T04:29:11.015Z,79.64
2018-04-12T04:31:38.467Z,79.38
2018-04-12T04:34:05.934Z,79.54
2018-04-12T04:36:33.383Z,79.34
2018-04-12T04:39:01.830Z,79.46
2018-04-12T04:41:30.275Z,79.31
2018-04-12T04:43:57.742Z,79.20
2018-04-12T04:46:25.185Z,79.68
2018-04-12T04:48:52.670Z,79.68
2018-04-12T04:51:20.111Z,79.90
2018-04-12T04:53:48.479Z,80.01
2018-04-12T04:56:15.960Z,79.48
2018-04-12T04:58:43.418Z,79.12
2018-04-12T05:01:10.907Z,78.83
2018-04-12T05:03:39.369Z,78.94
2018-04-12T05:06:06.859Z,78.78
2018-04-12T05:08:34.306Z,78.46
2018-04-12T05:11:01.850Z,78.10
2018-04-12T05:13:29.290Z,78.91
2018-04-12T05:15:56.767Z,78.81
2018-04-12T05:18:25.231Z,78.83
2018-04-12T05:20:52.896Z,78.34
2018-04-12T05:23:20.348Z,78.40
2018-04-12T05:25:47.791Z,77.80
2018-04-12T05:28:15.274Z,78.08
2018-04-12T05:30:42.720Z,78.13
2018-04-12T05:33:10.303Z,77.63
2018-04-12T05:35:37.752Z,77.44
2018-04-12T05:38:06.206Z,77.71
2018-04-12T05:40:33.650Z,77.28
2018-04-12T05:43:01.130Z,76.59
2018-04-12T05:45:28.591Z,76.14
2018-04-12T05:47:56.075Z,76.13
2018-04-12T05:50:23.514Z,75.89
2018-04-12T05:52:51.061Z,76.21
2018-04-12T05:55:18.623Z,76.33
2018-04-12T05:57:46.082Z,75.84
2018-04-12T06:00:13.556Z,75.14
2018-04-12T06:02:41.987Z,75.33
2018-04-12T06:05:09.566Z,75.71
2018-04-12T06:07:37.007Z,76.16
2018-04-12T06:10:05.412Z,76.52
2018-04-12T06:12:32.860Z,75.77
2018-04-12T06:15:00.343Z,75.14
2018-04-12T06:17:29.840Z,75.47
2018-04-12T06:19:57.324Z,75.20
2018-04-12T06:22:24.781Z,74.91
2018-04-12T06:24:52.260Z,74.00
2018-04-12T06:27:19.717Z,73.71
2018-04-12T06:29:47.204Z,73.34
2018-04-12T06:32:14.688Z,73.25
2018-04-12T06:34:42.146Z,72.56
2018-04-12T06:37:09.635Z,72.50
2018-04-12T06:39:37.083Z,72.33
2018-04-12T06:42:05.515Z,72.11
2018-04-12T06:44:35.006Z,73.03
2018-04-12T06:47:02.483Z,72.14
2018-04-12T06:49:29.932Z,70.46
2018-04-12T06:51:58.435Z,70.13
2018-04-12T06:54:25.883Z,71.02
2018-04-12T06:56:54.356Z,70.01
2018-04-12T06:59:21.803Z,68.90
2018-04-12T07:01:49.286Z,69.35
2018-04-12T07:04:16.834Z,69.05
2018-04-12T07:06:44.398Z,69.78
2018-04-12T07:09:11.863Z,70.21
2018-04-12T07:11:39.352Z,69.33
2018-04-12T07:14:06.822Z,69.07
2018-04-12T07:16:34.375Z,69.57
2018-04-12T07:19:01.932Z,70.71
2018-04-12T07:21:29.445Z,70.00
2018-04-12T07:23:56.933Z,70.40
2018-04-12T07:26:24.386Z,69.96
2018-04-12T07:28:51.866Z,69.30
2018-04-12T07:31:19.329Z,69.48
2018-04-12T07:33:46.811Z,69.15
2018-04-12T07:36:14.334Z,68.71
2018-04-12T07:38:41.835Z,68.75
2018-04-12T07:41:09.324Z,68.07
2018-04-12T07:43:36.857Z,66.99
2018-04-12T07:46:04.366Z,67.88
2018-04-12T07:48:31.934Z,67.54
2018-04-12T07:50:59.398Z,67.42
2018-04-12T07:53:26.890Z,67.22
2018-04-12T07:55:54.343Z,67.32
2018-04-12T07:58:21.812Z,66.81
2018-04-12T08:00:49.278Z,66.16
2018-04-12T08:03:16.759Z,67.01
2018-04-12T08:05:44.245Z,66.95
2018-04-12T08:08:11.727Z,66.17
2018-04-12T08:10:39.179Z,64.67
2018-04-12T08:13:06.635Z,65.73
2018-04-12T08:15:34.115Z,65.93
2018-04-12T08:18:01.610Z,65.88
2018-04-12T08:20:29.087Z,65.57
2018-04-12T08:22:56.525Z,66.03
2018-04-12T08:25:23.999Z,66.67
2018-04-12T08:27:51.518Z,66.66
2018-04-12T08:30:18.983Z,66.07
2018-04-12T08:32:46.423Z,65.87
2018-04-12T08:35:13.895Z,66.42
2018-04-12T08:37:41.367Z,66.36
2018-04-12T08:40:08.874Z,66.10
2018-04-12T08:42:36.332Z,65.76
2018-04-12T08:45:03.900Z,65.07
2018-04-12T08:47:31.344Z,65.10
2018-04-12T08:49:58.918Z,64.81
2018-04-12T08:52:26.389Z,64.84
2018-04-12T08:54:53.868Z,64.62
2018-04-12T08:57:21.352Z,63.35
2018-04-12T08:59:48.802Z,62.60
2018-04-12T09:02:16.331Z,64.67
2018-04-12T09:04:43.779Z,65.23
2018-04-12T09:07:11.259Z,65.56
2018-04-12T09:09:38.712Z,66.07
2018-04-12T09:12:06.343Z,64.44
2018-04-12T09:14:34.847Z,65.02
2018-04-12T09:17:02.386Z,64.61
2018-04-12T09:19:30.803Z,63.03
2018-04-12T09:21:58.291Z,63.15
2018-04-12T09:24:25.746Z,63.29
2018-04-12T09:26:53.396Z,64.60
2018-04-12T09:29:20.852Z,62.90
2018-04-12T09:31:48.297Z,63.08
2018-04-12T09:34:15.786Z,61.47
2018-04-12T09:36:43.265Z,62.37
2018-04-12T09:39:10.747Z,63.50
2018-04-12T09:41:38.235Z,62.45
2018-04-12T09:44:05.731Z,60.46
2018-04-12T09:46:35.196Z,62.01
2018-04-12T09:49:04.621Z,60.71
2018-04-12T09:51:33.031Z,59.37
2018-04-12T09:54:00.524Z,59.06
2018-04-12T09:56:27.995Z,58.16
2018-04-12T09:58:55.495Z,60.01
2018-04-12T10:01:22.959Z,61.44
2018-04-12T10:03:50.433Z,61.25
2018-04-12T10:06:22.829Z,60.34
2018-04-12T10:08:56.009Z,61.73
2018-04-12T10:11:23.475Z,62.64
2018-04-12T10:13:50.969Z,62.94
2018-04-12T10:16:18.420Z,61.99
2018-04-12T10:18:45.975Z,62.93
2018-04-12T10:21:13.516Z,62.50
2018-04-12T10:23:40.971Z,63.25
2018-04-12T10:26:08.518Z,62.50
2018-04-12T10:28:35.992Z,61.70
2018-04-12T10:31:03.470Z,61.74
2018-04-12T10:33:30.914Z,60.99
2018-04-12T10:35:58.391Z,61.61
2018-04-12T10:38:25.838Z,61.95
2018-04-12T10:40:53.327Z,62.69
2018-04-12T10:43:21.833Z,62.70
2018-04-12T10:45:49.326Z,62.46
2018-04-12T10:48:16.785Z,60.69
2018-04-12T10:50:44.289Z,59.39
2018-04-12T10:53:11.744Z,58.33
2018-04-12T10:55:39.196Z,57.68
2018-04-12T10:58:06.682Z,59.10
2018-04-12T11:00:34.194Z,60.45
2018-04-12T11:03:01.676Z,58.78
2018-04-12T11:05:29.143Z,58.17
2018-04-12T11:07:56.625Z,60.28
2018-04-12T11:10:24.071Z,60.49
2018-04-12T11:12:51.554Z,59.67
2018-04-12T11:15:19.015Z,59.75
2018-04-12T11:17:46.541Z,59.73
2018-04-12T11:20:14.003Z,58.38
2018-04-12T11:22:41.470Z,59.07
2018-04-12T11:25:08.946Z,60.61
2018-04-12T11:27:36.395Z,60.61
2018-04-12T11:30:03.905Z,62.41
2018-04-12T11:32:31.361Z,62.65
2018-04-12T11:34:58.854Z,61.43
2018-04-12T11:37:26.323Z,60.92
2018-04-12T11:39:53.850Z,59.76
2018-04-12T11:42:21.303Z,59.61
2018-04-12T11:44:48.800Z,58.07
2018-04-12T11:47:16.297Z,59.83
2018-04-12T11:49:44.755Z,59.25
2018-04-12T11:52:13.144Z,60.60
2018-04-12T11:54:40.641Z,60.97
2018-04-12T11:57:08.091Z,60.35
2018-04-12T11:59:35.579Z,60.46
2018-04-12T12:02:03.053Z,58.98
2018-04-12T12:04:30.575Z,59.92
2018-04-12T12:06:58.089Z,60.23
2018-04-12T12:09:25.525Z,62.17
2018-04-12T12:11:53.035Z,62.53
2018-04-12T12:14:20.537Z,61.22
2018-04-12T12:16:48.023Z,61.48
2018-04-12T12:19:16.519Z,59.77
2018-04-12T12:21:44.022Z,58.83
2018-04-12T12:24:11.543Z,58.28
2018-04-12T12:26:39.069Z,59.38
2018-04-12T12:29:06.548Z,59.71
2018-04-12T12:31:34.007Z,59.96
2018-04-12T12:34:01.491Z,60.07
2018-04-12T12:36:29.008Z,60.44
2018-04-12T12:38:56.495Z,61.24
2018-04-12T12:41:23.938Z,60.76
2018-04-12T12:43:51.524Z,62.31
2018-04-12T12:46:18.942Z,62.30
2018-04-12T12:48:46.415Z,62.06
2018-04-12T12:51:13.859Z,62.32
2018-04-12T12:53:41.385Z,62.50
2018-04-12T12:56:08.893Z,61.88
2018-04-12T12:58:36.343Z,62.10
2018-04-12T13:01:03.796Z,61.24
2018-04-12T13:03:32.239Z,59.52
2018-04-12T13:05:59.695Z,59.28
2018-04-12T13:08:27.182Z,60.75
2018-04-12T13:10:54.659Z,62.08
2018-04-12T13:13:22.144Z,62.84
2018-04-12T13:15:49.640Z,62.98
2018-04-12T13:18:18.050Z,62.27
2018-04-12T13:20:45.526Z,60.79
2018-04-12T13:23:12.975Z,59.60
2018-04-12T13:25:40.450Z,57.96
2018-04-12T13:28:07.921Z,59.78
2018-04-12T13:30:35.398Z,60.76
2018-04-12T13:33:05.380Z,60.35
2018-04-12T13:35:32.830Z,60.02
2018-04-12T13:38:00.283Z,61.12
2018-04-12T13:40:27.786Z,61.12
2018-04-12T13:42:55.251Z,62.02
2018-04-12T13:45:23.683Z,63.57
2018-04-12T13:47:54.881Z,63.92
2018-04-12T13:50:23.952Z,62.79
2018-04-12T13:52:51.431Z,62.45
2018-04-12T13:55:19.698Z,62.10
2018-04-12T13:57:52.288Z,61.30
2018-04-12T14:03:29.390Z,61.57
2018-04-12T14:08:45.500Z,61.55
2018-04-12T14:11:18.143Z,63.26
2018-04-12T14:13:45.760Z,64.26
2018-04-12T14:16:15.140Z,65.91
2018-04-12T14:18:44.630Z,65.21
2018-04-12T14:21:15.867Z,65.84
2018-04-12T14:23:43.354Z,65.66
2018-04-12T14:26:12.196Z,66.89
2018-04-12T14:28:39.669Z,67.28
2018-04-12T14:31:07.123Z,67.19
2018-04-12T14:33:35.578Z,66.63
2018-04-12T14:36:03.106Z,64.78
2018-04-12T14:38:30.550Z,59.66
2018-04-12T14:40:58.008Z,56.66
2018-04-12T14:43:25.486Z,57.30
2018-04-12T14:45:53.866Z,59.72
2018-04-12T14:48:21.352Z,60.87
2018-04-12T14:50:49.728Z,61.29
2018-04-12T14:53:17.224Z,61.06
2018-04-12T14:55:44.674Z,60.27
2018-04-12T14:58:12.156Z,56.51
2018-04-12T15:00:39.631Z,54.39
2018-04-12T15:03:07.100Z,50.79
2018-04-12T15:05:34.599Z,55.42
2018-04-12T15:08:02.068Z,58.62
2018-04-12T15:10:29.551Z,61.76
2018-04-12T15:12:57.030Z,62.42
2018-04-12T15:15:25.422Z,63.30
2018-04-12T15:17:52.866Z,64.12
2018-04-12T15:20:20.354Z,65.26
2018-04-12T15:22:47.808Z,65.91
2018-04-12T15:25:15.309Z,66.11
2018-04-12T15:27:44.361Z,65.60
2018-04-12T15:30:12.957Z,64.44
2018-04-12T15:32:40.547Z,57.33
2018-04-12T15:35:08.024Z,49.18
2018-04-12T15:37:35.523Z,42.79
2018-04-12T15:40:03.460Z,41.06
2018-04-12T15:42:30.943Z,42.64
2018-04-12T15:44:59.379Z,41.95
2018-04-12T15:47:26.901Z,41.30
2018-04-12T15:49:54.357Z,50.75
2018-04-12T15:52:21.854Z,44.56
2018-04-12T15:54:49.315Z,45.84
2018-04-12T15:57:16.794Z,45.44
2018-04-12T15:59:44.247Z,46.30
2018-04-12T16:02:11.730Z,46.00
2018-04-12T16:04:39.182Z,42.51
2018-04-12T16:07:06.672Z,42.37
2018-04-12T16:09:34.617Z,52.53
2018-04-12T16:12:02.079Z,57.46
2018-04-12T16:14:29.565Z,55.07
2018-04-12T16:16:57.015Z,58.74
2018-04-12T16:19:25.439Z,60.42
2018-04-12T16:21:52.905Z,61.45
2018-04-12T16:24:20.392Z,62.42
2018-04-12T16:26:48.759Z,62.09
2018-04-12T16:29:18.240Z,52.72
2018-04-12T16:31:45.707Z,52.09
2018-04-12T16:34:13.188Z,52.15
2018-04-12T16:36:42.906Z,51.68
2018-04-12T16:39:10.415Z,58.04
2018-04-12T16:41:37.888Z,57.19
2018-04-12T16:44:05.399Z,57.76
2018-04-12T16:46:33.785Z,55.99
2018-04-12T16:49:03.193Z,60.45
2018-04-12T16:51:31.587Z,62.86
2018-04-12T16:53:59.044Z,63.11
2018-04-12T16:56:27.573Z,63.86
2018-04-12T16:58:54.995Z,63.97
2018-04-12T17:01:28.827Z,65.06
2018-04-12T17:03:56.289Z,66.70
2018-04-12T17:06:23.780Z,67.87
2018-04-12T17:08:51.252Z,68.98
2018-04-12T17:11:18.756Z,69.87
2018-04-12T17:13:46.214Z,69.59
2018-04-12T17:16:13.695Z,70.15
2018-04-12T17:18:41.153Z,71.00
2018-04-12T17:21:08.662Z,71.02
2018-04-12T17:23:36.124Z,71.45
2018-04-12T17:26:03.625Z,72.15
2018-04-12T17:28:31.079Z,71.93
2018-04-12T17:30:58.552Z,71.82
2018-04-12T17:33:27.937Z,72.09
2018-04-12T17:35:59.100Z,72.41
2018-04-12T17:38:26.587Z,73.10
2018-04-12T17:40:54.043Z,73.13
2018-04-12T17:43:21.522Z,73.69
2018-04-12T17:45:48.997Z,73.71
2018-04-12T17:48:16.487Z,73.93
2018-04-12T17:50:43.952Z,73.83
2018-04-12T17:53:11.452Z,74.50
2018-04-12T17:55:38.922Z,74.98
2018-04-12T17:58:07.395Z,74.76
2018-04-12T18:00:35.831Z,74.63
2018-04-12T18:03:03.329Z,75.23
2018-04-12T18:05:30.801Z,75.43
2018-04-12T18:07:59.144Z,75.25
2018-04-12T18:10:26.631Z,75.15
2018-04-12T18:12:54.123Z,74.91
2018-04-12T18:15:21.628Z,74.77
2018-04-12T18:17:49.076Z,75.48
2018-04-12T18:20:16.551Z,75.43
2018-04-12T18:22:43.998Z,75.42
2018-04-12T18:25:14.391Z,75.61
2018-04-12T18:27:41.838Z,76.02
2018-04-12T18:30:09.315Z,75.98
2018-04-12T18:32:36.780Z,75.95
2018-04-12T18:35:04.297Z,75.89
2018-04-12T18:37:31.835Z,76.28
2018-04-12T18:39:59.292Z,76.36
2018-04-12T18:42:26.774Z,76.21
2018-04-12T18:44:54.232Z,76.45
2018-04-12T18:47:21.792Z,76.02
2018-04-12T18:49:49.290Z,76.26
2018-04-12T18:52:16.763Z,76.17
2018-04-12T18:54:44.209Z,76.40
2018-04-12T18:57:14.633Z,76.31
2018-04-12T18:59:42.306Z,76.48
2018-04-12T19:02:10.228Z,76.11
2018-04-12T19:04:37.787Z,76.28
2018-04-12T19:07:05.314Z,76.20
2018-04-12T19:09:32.763Z,75.80
2018-04-12T19:12:01.428Z,76.23
2018-04-12T19:14:28.980Z,76.54
2018-04-12T19:16:57.418Z,76.29
2018-04-12T19:19:24.866Z,76.22
2018-04-12T19:21:52.351Z,76.65
2018-04-12T19:24:19.803Z,76.59
2018-04-12T19:26:47.328Z,76.20
2018-04-12T19:29:14.788Z,76.38
2018-04-12T19:31:42.243Z,76.62
2018-04-12T19:34:09.715Z,76.73
2018-04-12T19:36:37.228Z,76.52
2018-04-12T19:39:04.818Z,76.89
2018-04-12T19:41:32.290Z,77.05
2018-04-12T19:43:59.799Z,77.25
2018-04-12T19:46:27.316Z,77.30
2018-04-12T19:48:54.996Z,76.89
2018-04-12T19:51:22.472Z,77.04
2018-04-12T19:53:49.958Z,76.96
2018-04-12T19:56:18.272Z,76.84
2018-04-12T19:58:47.209Z,76.51
2018-04-12T20:01:14.727Z,76.95
2018-04-12T20:03:42.220Z,77.12
2018-04-12T20:06:09.682Z,77.33
2018-04-12T20:08:38.101Z,77.28
2018-04-12T20:11:05.618Z,77.51
2018-04-12T20:13:33.126Z,77.25
2018-04-12T20:16:01.516Z,77.46
2018-04-12T20:18:29.075Z,77.54
2018-04-12T20:20:56.620Z,77.64
2018-04-12T20:23:24.103Z,77.40
2018-04-12T20:25:51.590Z,77.45
2018-04-12T20:28:19.102Z,77.35
2018-04-12T20:30:46.553Z,77.21
2018-04-12T20:33:14.030Z,77.05
2018-04-12T20:35:45.161Z,77.08
2018-04-12T20:38:12.623Z,77.27
2018-04-12T20:40:43.583Z,77.21
2018-04-12T20:43:11.028Z,77.04
2018-04-12T20:45:38.541Z,77.28
2018-04-12T20:48:06.015Z,77.22
2018-04-12T20:50:33.492Z,77.07
2018-04-12T20:53:00.944Z,77.25
2018-04-12T20:55:29.277Z,77.50
2018-04-12T20:57:56.729Z,77.72
2018-04-12T21:00:24.685Z,77.53
2018-04-12T21:02:52.298Z,78.32
2018-04-12T21:05:19.796Z,77.53
2018-04-12T21:07:47.266Z,77.98
2018-04-12T21:10:14.727Z,77.12
2018-04-12T21:12:42.255Z,76.94
2018-04-12T21:15:09.750Z,77.14
2018-04-12T21:17:37.355Z,77.62
2018-04-12T21:20:04.831Z,78.12
2018-04-12T21:22:32.375Z,77.92
2018-04-12T21:24:59.896Z,77.93
2018-04-12T21:27:27.411Z,78.22
2018-04-12T21:29:56.687Z,77.91
2018-04-12T21:32:24.468Z,78.15
2018-04-12T21:34:52.882Z,78.10
2018-04-12T21:37:20.408Z,78.48
2018-04-12T21:39:47.859Z,78.74
2018-04-12T21:42:16.040Z,78.52
2018-04-12T21:44:43.516Z,78.50
2018-04-12T21:47:10.958Z,78.79
2018-04-12T21:49:38.500Z,78.79
2018-04-12T21:52:05.897Z,78.98
2018-04-12T21:54:33.377Z,79.07
2018-04-12T21:57:00.833Z,79.28
2018-04-12T21:59:30.389Z,79.09
2018-04-12T22:01:58.910Z,78.97
2018-04-12T22:04:27.562Z,78.53
2018-04-12T22:06:55.054Z,78.83
2018-04-12T22:09:22.562Z,78.55
2018-04-12T22:11:51.006Z,78.24
2018-04-12T22:14:18.490Z,78.40
2018-04-12T22:16:45.960Z,78.38
2018-04-12T22:19:13.490Z,78.18
2018-04-12T22:21:41.922Z,78.46
2018-04-12T22:24:09.503Z,78.14
2018-04-12T22:26:37.001Z,78.12
2018-04-12T22:29:04.466Z,78.20
2018-04-12T22:31:31.948Z,78.34
2018-04-12T22:34:00.089Z,78.29
2018-04-12T22:36:27.574Z,78.29
2018-04-12T22:38:55.021Z,78.24
2018-04-12T22:41:22.530Z,78.13
2018-04-12T22:43:50.177Z,78.22
2018-04-12T22:46:17.654Z,78.08
2018-04-12T22:48:45.155Z,77.98
2018-04-12T22:51:13.679Z,78.18
2018-04-12T22:53:44.806Z,78.10
2018-04-12T22:56:13.221Z,77.93
2018-04-12T22:58:46.726Z,77.84
2018-04-12T23:01:15.244Z,77.71
2018-04-12T23:03:42.771Z,78.22
2018-04-12T23:06:13.297Z,78.52
2018-04-12T23:08:40.793Z,78.43
2018-04-12T23:11:11.955Z,78.30
2018-04-12T23:13:39.604Z,78.21
2018-04-12T23:16:07.091Z,78.10
2018-04-12T23:18:34.534Z,78.04
2018-04-12T23:21:02.000Z,78.15
2018-04-12T23:23:29.583Z,78.03
2018-04-12T23:25:59.015Z,78.03
2018-04-12T23:28:26.582Z,77.63
2018-04-12T23:30:54.057Z,77.93
2018-04-12T23:33:22.764Z,77.85
2018-04-12T23:35:50.206Z,77.95
2018-04-12T23:38:19.098Z,77.73
2018-04-12T23:40:46.679Z,77.59
2018-04-12T23:43:14.183Z,77.57
2018-04-12T23:45:41.666Z,77.26
2018-04-12T23:48:09.150Z,76.96
2018-04-12T23:50:37.450Z,76.63
2018-04-12T23:53:05.832Z,76.50
2018-04-12T23:55:34.260Z,76.31
2018-04-12T23:58:01.741Z,76.09
